< Cyclone 200005 2000 Season Cyclone 200007 >
Cyclone 200006 (STEVE)
General InformationTrack Information on Google MapsDetailed Wind InformationList of All Images || ResourceGoogle EarthGE AnimationAtom FeedGeoJSON
Detalied Best Track (Time Zone = UTC)
Year Month Day Hour Lat. Long. Pressure (hPa) Wind (kt) Class Image Chart
2000 2 27 00 -16.4 147.0 988 64 5 Image --
2000 2 27 06 -16.5 146.3 980 76 5 Image --
2000 2 27 09 -16.7 145.8 975 82 5 Image --
2000 2 27 12 -16.7 145.0 990 54 4 Image --
2000 2 27 15 -17.0 144.5 995 54 4 Image --
2000 2 27 18 -17.2 143.5 999 33 2 Image --
2000 2 28 00 -17.4 142.6 1002 33 2 Image --
2000 2 28 06 -17.4 141.5 1002 33 2 Image --
2000 2 28 12 -17.0 140.4 995 54 4 Image --
2000 2 28 18 -16.6 139.6 992 54 4 Image --
2000 2 29 00 -16.4 139.1 988 60 4 Image --
2000 2 29 06 -16.1 138.5 988 60 4 Image --
2000 2 29 13 -15.8 137.9 988 74 5 Image --
2000 2 29 18 -15.6 137.3 985 78 5 Image --
2000 2 29 21 -15.5 136.9 985 78 5 Image --
2000 2 29 22 -15.5 136.8 985 78 5 Image --
2000 3 1 00 -15.5 136.5 987 68 5 Image --
2000 3 1 03 -15.4 136.0 990 58 4 Image --
2000 3 1 06 -15.2 135.4 992 56.2308 0 Image --
2000 3 1 12 -14.9 134.6 995 54.4615 0 Image --
2000 3 1 18 -14.8 133.8 995 52.6923 0 Image --
2000 3 2 00 -14.7 133.0 995 50.9231 0 Image --
2000 3 2 06 -14.6 132.2 993 49.1538 0 Image --
2000 3 2 12 -14.5 131.2 994 47.3846 0 Image --
2000 3 2 18 -14.6 130.5 992 45.6154 0 Image --
2000 3 3 00 -14.8 129.9 994 43.8462 0 Image --
2000 3 3 06 -15.1 129.2 994 42.0769 0 Image --
2000 3 3 12 -15.4 128.0 995 40.3077 0 Image --
2000 3 3 18 -15.7 126.5 995 38.5385 0 Image --
2000 3 4 00 -16.1 125.0 995 36.7692 0 Image --
2000 3 4 04 -17.1 123.8 995 35 3 Image --
2000 3 4 10 -17.4 123.0 995 35 3 Image --
2000 3 4 16 -17.7 122.2 990 41 3 Image --
2000 3 4 22 -18.1 121.4 990 41 3 Image --
2000 3 5 04 -18.5 120.6 985 49 4 Image --
2000 3 5 10 -18.9 120.0 985 49 4 Image --
2000 3 5 13 -19.1 119.7 985 49 4 Image --
2000 3 5 16 -19.3 119.2 985 49 4 Image --
2000 3 5 19 -19.5 118.8 980 54 4 Image --
2000 3 5 22 -19.7 118.4 975 60 4 Image --
2000 3 6 01 -19.9 117.8 975 60 4 Image --
2000 3 6 04 -20.1 117.1 975 60 4 Image --
2000 3 6 07 -20.3 116.7 975 60 4 Image --
2000 3 6 10 -20.4 116.6 975 60 4 Image --
2000 3 6 13 -20.7 116.2 975 60 4 Image --
2000 3 6 16 -21.0 115.9 980 54 4 Image --
2000 3 6 19 -21.3 115.6 980 54 4 Image --
2000 3 6 22 -21.7 115.4 980 54 4 Image --
2000 3 7 01 -22.2 115.1 980 54 4 Image --
2000 3 7 04 -22.4 114.6 980 54 4 Image --
2000 3 7 07 -22.7 114.4 980 54 4 Image --
2000 3 7 10 -22.9 114.2 980 54 4 Image --
2000 3 7 13 -23.1 114.0 980 54 4 Image --
2000 3 7 16 -23.2 113.9 980 54 4 Image --
2000 3 7 19 -23.4 113.7 980 54 4 Image --
2000 3 7 22 -23.6 113.5 980 54 4 Image --
2000 3 8 01 -23.8 113.5 980 54 4 Image --
2000 3 8 04 -24.3 113.4 980 54 4 Image --
2000 3 8 07 -24.7 113.2 980 54 4 Image --
2000 3 8 10 -24.8 113.1 980 54 4 Image --
2000 3 8 13 -25.0 113.2 980 54 4 Image --
2000 3 8 16 -25.0 113.3 980 54 4 Image --
2000 3 8 19 -25.1 113.3 980 54 4 Image --
2000 3 8 22 -25.2 113.5 980 54 4 Image --
2000 3 9 01 -25.3 113.5 980 54 4 Image --
2000 3 9 04 -25.4 113.6 980 54 4 Image --
2000 3 9 07 -25.5 113.7 980 54 4 Image --
2000 3 9 10 -25.7 114.1 980 54 4 Image --
2000 3 9 13 -25.8 114.5 980 54 4 Image --
2000 3 9 16 -26.0 114.8 980 54 4 Image --
2000 3 9 22 -26.8 115.4 985 49 4 Image --
2000 3 10 04 -27.7 116.6 985 49 4 Image --
2000 3 10 10 -28.5 118.2 990 41 3 Image --
2000 3 10 16 -29.7 119.7 990 41 3 Image --
2000 3 10 22 -31.1 121.3 990 41 3 Image --
2000 3 11 04 -32.4 123.1 990 41 3 Image --
2000 3 11 10 -33.8 124.7 990 41 3 Image --
2000 3 11 16 -35.0 126.0 990 41 3 Image --
2000 3 11 22 -36.9 127.5 995 35 3 Image --
< Cyclone 200005 2000 Season Cyclone 200007 >

Help